Time;durP1;ratioP1;P1;durP2;ratioP2;P2;SDS_P1;SDS_P2;PMS_P1;PMS_P2;Temp;Humidity;BMP_temperature;BMP_pressure;BME280_temperature;BME280_humidity;BME280_pressure;Samples;Min_cycle;Max_cycle;Signal;HPM_P1;HPM_P2
2023/12/16 00:00:32;;;;;;;;;;;;;;;;;;5048996;28;20002;-79
2023/12/16 00:02:57;;;;;;;;;;;;;;;;;;5051488;28;19964;-79
2023/12/16 00:05:23;;;;;;;;;;;;;;;;;;5049511;28;19959;-79
2023/12/16 00:07:49;;;;;;;;;;;;;;;;;;5047538;28;19960;-79
2023/12/16 00:10:16;;;;;;;;;;;;;;;;;;5046546;28;19956;-78
2023/12/16 00:12:42;;;;;;;;;;;;;;;;;;5049800;28;19920;-79
2023/12/16 00:15:09;;;;;;;;;;;;;;;;;;5048316;28;19956;-79
2023/12/16 00:17:34;;;;;;;;;;;;;;;;;;5048117;28;19913;-80
2023/12/16 00:20:00;;;;;;;;;;;;;;;;;;5050371;28;20489;-79
2023/12/16 00:22:26;;;;;;;;;;;;;;;;;;5050251;28;19997;-79
2023/12/16 00:24:52;;;;;;;;;;;;;;;;;;5051079;28;19959;-78
2023/12/16 00:27:18;;;;;;;;;;;;;;;;;;5050355;28;20070;-79
2023/12/16 00:29:44;;;;;;;;;;;;;;;;;;5049094;28;19996;-79
2023/12/16 00:32:10;;;;;;;;;;;;;;;;;;5049678;28;19959;-78
2023/12/16 00:34:36;;;;;;;;;;;;;;;;;;5049350;28;19960;-79
2023/12/16 00:37:05;;;;;;;;;;;;;;;;;;5054221;28;19952;-80
2023/12/16 00:39:31;;;;;;;;;;;;;;;;;;5050178;28;19925;-79
2023/12/16 00:41:57;;;;;;;;;;;;;;;;;;5049481;28;20309;-79
2023/12/16 00:44:23;;;;;;;;;;;;;;;;;;5049155;28;20352;-79
2023/12/16 00:46:49;;;;;;;;;;;;;;;;;;5045841;28;19975;-79
2023/12/16 00:49:15;;;;;;;;;;;;;;;;;;5047841;28;19959;-79
2023/12/16 00:51:41;;;;;;;;;;;;;;;;;;5049369;28;20025;-79
2023/12/16 00:54:07;;;;;;;;;;;;;;;;;;5048553;28;19973;-79
2023/12/16 00:56:33;;;;;;;;;;;;;;;;;;5044922;28;20249;-77
2023/12/16 00:58:59;;;;;;;;;;;;;;;;;;5046968;28;19960;-78
2023/12/16 01:01:25;;;;;;;;;;;;;;;;;;5049776;28;19967;-78
2023/12/16 01:03:51;;;;;;;;;;;;;;;;;;5045947;28;20378;-76
2023/12/16 01:06:17;;;;;;;;;;;;;;;;;;5049794;28;19940;-78
2023/12/16 01:08:43;;;;;;;;;;;;;;;;;;5049642;28;19964;-76
2023/12/16 01:11:09;;;;;;;;;;;;;;;;;;5049664;28;19973;-76
2023/12/16 01:13:35;;;;;;;;;;;;;;;;;;5048082;28;20528;-78
2023/12/16 01:16:01;;;;;;;;;;;;;;;;;;5049437;28;20394;-78
2023/12/16 01:18:27;;;;;;;;;;;;;;;;;;5049541;28;20380;-77
2023/12/16 01:20:53;;;;;;;;;;;;;;;;;;5049835;28;20395;-76
2023/12/16 01:23:19;;;;;;;;;;;;;;;;;;5049086;28;20031;-77
2023/12/16 01:25:45;;;;;;;;;;;;;;;;;;5049562;28;19975;-76
2023/12/16 01:28:11;;;;;;;;;;;;;;;;;;5048897;28;19960;-76
2023/12/16 01:30:37;;;;;;;;;;;;;;;;;;5047575;28;19960;-75
2023/12/16 01:33:03;;;;;;;;;;;;;;;;;;5049617;28;20426;-76
2023/12/16 01:35:29;;;;;;;;;;;;;;;;;;5048082;28;19923;-76
2023/12/16 01:37:55;;;;;;;;;;;;;;;;;;5048674;28;19912;-76
2023/12/16 01:40:21;;;;;;;;;;;;;;;;;;5049533;28;19955;-76
2023/12/16 01:42:47;;;;;;;;;;;;;;;;;;5047987;28;20340;-75
2023/12/16 01:45:13;;;;;;;;;;;;;;;;;;5050569;28;20379;-76
2023/12/16 01:47:39;;;;;;;;;;;;;;;;;;5049021;28;20391;-76
2023/12/16 01:50:05;;;;;;;;;;;;;;;;;;5048935;28;19917;-77
2023/12/16 01:52:31;;;;;;;;;;;;;;;;;;5048652;28;20009;-77
2023/12/16 01:54:57;;;;;;;;;;;;;;;;;;5048922;28;19967;-75
2023/12/16 01:57:23;;;;;;;;;;;;;;;;;;5049179;28;19979;-76
2023/12/16 01:59:49;;;;;;;;;;;;;;;;;;5046752;28;20034;-76
2023/12/16 02:02:15;;;;;;;;;;;;;;;;;;5047874;28;20003;-77
2023/12/16 02:04:41;;;;;;;;;;;;;;;;;;5048200;28;19955;-76
2023/12/16 02:07:06;;;;;;;;;;;;;;;;;;5044639;28;19971;-80
2023/12/16 02:09:32;;;;;;;;;;;;;;;;;;5043190;28;21591;-76
2023/12/16 02:11:58;;;;;;;;;;;;;;;;;;5045120;28;20054;-76
2023/12/16 02:14:24;;;;;;;;;;;;;;;;;;5044012;28;19967;-76
2023/12/16 02:16:50;;;;;;;;;;;;;;;;;;5048178;28;19916;-76
2023/12/16 02:19:16;;;;;;;;;;;;;;;;;;5047401;28;20359;-76
2023/12/16 02:21:42;;;;;;;;;;;;;;;;;;5048123;28;19956;-76
2023/12/16 02:24:08;;;;;;;;;;;;;;;;;;5046888;28;19985;-75
2023/12/16 02:26:34;;;;;;;;;;;;;;;;;;5048311;28;19956;-76
2023/12/16 02:29:00;;;;;;;;;;;;;;;;;;5044892;28;19963;-78
2023/12/16 02:31:26;;;;;;;;;;;;;;;;;;5047718;28;20289;-76
2023/12/16 02:33:52;;;;;;;;;;;;;;;;;;5047090;28;19920;-77
2023/12/16 02:36:18;;;;;;;;;;;;;;;;;;5047804;28;19966;-76
2023/12/16 02:38:44;;;;;;;;;;;;;;;;;;5046690;28;20361;-75
2023/12/16 02:41:10;;;;;;;;;;;;;;;;;;5048250;28;19943;-77
2023/12/16 02:43:36;;;;;;;;;;;;;;;;;;5046853;28;19944;-76
2023/12/16 02:46:02;;;;;;;;;;;;;;;;;;5047625;28;19944;-77
2023/12/16 02:48:28;;;;;;;;;;;;;;;;;;5039331;28;19964;-76
2023/12/16 02:50:54;;;;;;;;;;;;;;;;;;5048277;28;19967;-77
2023/12/16 02:53:20;;;;;;;;;;;;;;;;;;5040222;28;20486;-75
2023/12/16 02:55:46;;;;;;;;;;;;;;;;;;5046788;28;20535;-77
2023/12/16 02:58:12;;;;;;;;;;;;;;;;;;5047858;28;19996;-76
2023/12/16 03:00:38;;;;;;;;;;;;;;;;;;5047021;28;19956;-77
2023/12/16 03:03:04;;;;;;;;;;;;;;;;;;5047484;28;19986;-77
2023/12/16 03:05:30;;;;;;;;;;;;;;;;;;5047582;28;20046;-77
2023/12/16 03:07:56;;;;;;;;;;;;;;;;;;5047253;28;20204;-77
2023/12/16 03:10:22;;;;;;;;;;;;;;;;;;5045845;28;20063;-77
2023/12/16 03:12:47;;;;;;;;;;;;;;;;;;5047261;28;19952;-75
2023/12/16 03:15:13;;;;;;;;;;;;;;;;;;5052548;28;19967;-76
2023/12/16 03:17:39;;;;;;;;;;;;;;;;;;5051713;28;19975;-79
2023/12/16 03:20:05;;;;;;;;;;;;;;;;;;5051512;28;19956;-78
2023/12/16 03:22:31;;;;;;;;;;;;;;;;;;5054237;28;20368;-77
2023/12/16 03:24:57;;;;;;;;;;;;;;;;;;5033482;28;19956;-76
2023/12/16 03:27:24;;;;;;;;;;;;;;;;;;5051163;28;19957;-76
2023/12/16 03:29:50;;;;;;;;;;;;;;;;;;5048077;28;20063;-76
2023/12/16 03:32:16;;;;;;;;;;;;;;;;;;5052690;28;19956;-78
2023/12/16 03:34:42;;;;;;;;;;;;;;;;;;5050326;28;20364;-76
2023/12/16 03:37:08;;;;;;;;;;;;;;;;;;5051812;28;19952;-76
2023/12/16 03:39:33;;;;;;;;;;;;;;;;;;5049980;28;19963;-77
2023/12/16 03:41:59;;;;;;;;;;;;;;;;;;5050740;28;19978;-76
2023/12/16 03:44:25;;;;;;;;;;;;;;;;;;5046460;28;20459;-76
2023/12/16 03:46:53;;;;;;;;;;;;;;;;;;5052641;28;20332;-77
2023/12/16 03:49:18;;;;;;;;;;;;;;;;;;5048638;28;19917;-75
2023/12/16 03:51:44;;;;;;;;;;;;;;;;;;5050727;28;20024;-77
2023/12/16 03:54:10;;;;;;;;;;;;;;;;;;5049822;28;19978;-77
2023/12/16 03:56:36;;;;;;;;;;;;;;;;;;5051259;28;19913;-77
2023/12/16 03:59:02;;;;;;;;;;;;;;;;;;5045249;28;20562;-77
2023/12/16 04:01:28;;;;;;;;;;;;;;;;;;5044613;28;19925;-77
2023/12/16 04:03:54;;;;;;;;;;;;;;;;;;5049803;28;20242;-77
2023/12/16 04:06:20;;;;;;;;;;;;;;;;;;5047934;28;19997;-77
2023/12/16 04:08:46;;;;;;;;;;;;;;;;;;5045055;28;19964;-76
2023/12/16 04:11:12;;;;;;;;;;;;;;;;;;5047748;28;19964;-77
2023/12/16 04:13:38;;;;;;;;;;;;;;;;;;5045619;28;19948;-76
2023/12/16 04:16:04;;;;;;;;;;;;;;;;;;5048985;28;19948;-77
2023/12/16 04:18:30;;;;;;;;;;;;;;;;;;5046232;28;19940;-77
2023/12/16 04:20:56;;;;;;;;;;;;;;;;;;5038773;28;20356;-77
2023/12/16 04:23:22;;;;;;;;;;;;;;;;;;5047453;28;19971;-78
2023/12/16 04:25:48;;;;;;;;;;;;;;;;;;5050397;28;20065;-77
2023/12/16 04:28:14;;;;;;;;;;;;;;;;;;5049874;28;19988;-81
2023/12/16 04:30:40;;;;;;;;;;;;;;;;;;5045826;28;19948;-83
2023/12/16 04:33:05;;;;;;;;;;;;;;;;;;5050450;28;19994;-82
2023/12/16 04:35:31;;;;;;;;;;;;;;;;;;5050678;28;19955;-83
2023/12/16 04:37:57;;;;;;;;;;;;;;;;;;5050951;28;19964;-82
2023/12/16 04:40:23;;;;;;;;;;;;;;;;;;5041685;28;19956;-81
2023/12/16 04:42:49;;;;;;;;;;;;;;;;;;5040757;28;19952;-82
2023/12/16 04:45:15;;;;;;;;;;;;;;;;;;5049109;28;20368;-82
2023/12/16 04:47:41;;;;;;;;;;;;;;;;;;5056469;28;20356;-81
2023/12/16 04:50:07;;;;;;;;;;;;;;;;;;5061949;28;19990;-81
2023/12/16 04:52:33;;;;;;;;;;;;;;;;;;5050630;28;19955;-82
2023/12/16 04:54:59;;;;;;;;;;;;;;;;;;5049262;28;19947;-82
2023/12/16 04:57:25;;;;;;;;;;;;;;;;;;5050885;28;19920;-81
2023/12/16 04:59:51;;;;;;;;;;;;;;;;;;5049600;28;20081;-80
2023/12/16 05:02:17;;;;;;;;;;;;;;;;;;5050367;28;20010;-81
2023/12/16 05:04:43;;;;;;;;;;;;;;;;;;5049899;28;19927;-81
2023/12/16 05:07:09;;;;;;;;;;;;;;;;;;5050752;28;20003;-81
2023/12/16 05:09:35;;;;;;;;;;;;;;;;;;5050101;28;20396;-82
2023/12/16 05:12:01;;;;;;;;;;;;;;;;;;5050521;28;19925;-81
2023/12/16 05:14:27;;;;;;;;;;;;;;;;;;5049183;28;20012;-81
2023/12/16 05:16:53;;;;;;;;;;;;;;;;;;5050953;28;19955;-81
2023/12/16 05:19:19;;;;;;;;;;;;;;;;;;5049791;28;20013;-82
2023/12/16 05:21:44;;;;;;;;;;;;;;;;;;5055093;28;19948;-82
2023/12/16 05:24:10;;;;;;;;;;;;;;;;;;5050625;28;19971;-82
2023/12/16 05:26:37;;;;;;;;;;;;;;;;;;5050531;28;19924;-81
2023/12/16 05:29:02;;;;;;;;;;;;;;;;;;5049231;28;19913;-81
2023/12/16 05:31:28;;;;;;;;;;;;;;;;;;5048862;28;19963;-82
2023/12/16 05:33:54;;;;;;;;;;;;;;;;;;5049962;28;20417;-82
2023/12/16 05:36:20;;;;;;;;;;;;;;;;;;5048764;28;19917;-82
2023/12/16 05:38:46;;;;;;;;;;;;;;;;;;5048201;28;20333;-79
2023/12/16 05:41:13;;;;;;;;;;;;;;;;;;5048730;28;20374;-79
2023/12/16 05:43:39;;;;;;;;;;;;;;;;;;5047630;28;19917;-78
2023/12/16 05:46:05;;;;;;;;;;;;;;;;;;5048422;28;19913;-78
2023/12/16 05:48:31;;;;;;;;;;;;;;;;;;5050282;28;20677;-79
2023/12/16 05:50:57;;;;;;;;;;;;;;;;;;5048258;28;20035;-80
2023/12/16 05:53:23;;;;;;;;;;;;;;;;;;5048504;28;19916;-79
2023/12/16 05:55:49;;;;;;;;;;;;;;;;;;5048410;28;19986;-79
2023/12/16 05:58:15;;;;;;;;;;;;;;;;;;5048831;28;19913;-79
2023/12/16 06:00:41;;;;;;;;;;;;;;;;;;5048769;28;19924;-79
2023/12/16 06:03:07;;;;;;;;;;;;;;;;;;5047865;28;20233;-79
2023/12/16 06:05:33;;;;;;;;;;;;;;;;;;5047958;28;20466;-79
2023/12/16 06:07:59;;;;;;;;;;;;;;;;;;5046538;28;19978;-79
2023/12/16 06:10:25;;;;;;;;;;;;;;;;;;5047642;28;20039;-79
2023/12/16 06:12:51;;;;;;;;;;;;;;;;;;5046514;28;20404;-79
2023/12/16 06:15:17;;;;;;;;;;;;;;;;;;5046293;28;20039;-79
2023/12/16 06:17:42;;;;;;;;;;;;;;;;;;5041631;28;19983;-79
2023/12/16 06:20:08;;;;;;;;;;;;;;;;;;5046870;28;19956;-79
2023/12/16 06:22:34;;;;;;;;;;;;;;;;;;5048478;28;19955;-79
2023/12/16 06:25:00;;;;;;;;;;;;;;;;;;5048079;28;20367;-79
2023/12/16 06:27:26;;;;;;;;;;;;;;;;;;5047903;28;20081;-79
2023/12/16 06:29:52;;;;;;;;;;;;;;;;;;5046016;28;19928;-79
2023/12/16 06:32:18;;;;;;;;;;;;;;;;;;5048191;28;20330;-78
2023/12/16 06:34:46;;;;;;;;;;;;;;;;;;5047290;28;19975;-79
2023/12/16 06:37:12;;;;;;;;;;;;;;;;;;5048469;28;19912;-79
2023/12/16 06:39:38;;;;;;;;;;;;;;;;;;5047483;28;19970;-80
2023/12/16 06:42:03;;;;;;;;;;;;;;;;;;5048073;28;19959;-79
2023/12/16 06:44:29;;;;;;;;;;;;;;;;;;5045559;28;19939;-79
2023/12/16 06:46:55;;;;;;;;;;;;;;;;;;5047666;28;19917;-81
2023/12/16 06:49:21;;;;;;;;;;;;;;;;;;5050849;28;19960;-81
2023/12/16 06:51:47;;;;;;;;;;;;;;;;;;5054412;28;19947;-81
2023/12/16 06:54:13;;;;;;;;;;;;;;;;;;5053833;28;19948;-81
2023/12/16 06:56:40;;;;;;;;;;;;;;;;;;5054819;28;19967;-81
2023/12/16 06:59:06;;;;;;;;;;;;;;;;;;5052776;28;19916;-81
2023/12/16 07:01:32;;;;;;;;;;;;;;;;;;5058717;28;20202;-81
2023/12/16 07:03:58;;;;;;;;;;;;;;;;;;5052359;28;20312;-82
2023/12/16 07:06:24;;;;;;;;;;;;;;;;;;5054675;28;20022;-81
2023/12/16 07:08:50;;;;;;;;;;;;;;;;;;5056809;28;20002;-81
2023/12/16 07:11:17;;;;;;;;;;;;;;;;;;5047379;28;20386;-81
2023/12/16 07:13:43;;;;;;;;;;;;;;;;;;5044751;28;19970;-81
2023/12/16 07:16:09;;;;;;;;;;;;;;;;;;5053529;28;19975;-81
2023/12/16 07:18:35;;;;;;;;;;;;;;;;;;5049728;28;19998;-81
2023/12/16 07:21:01;;;;;;;;;;;;;;;;;;5053748;28;20042;-81
2023/12/16 07:23:33;;;;;;;;;;;;;;;;;;5052214;28;20346;-81
2023/12/16 07:25:59;;;;;;;;;;;;;;;;;;5053030;28;19920;-81
2023/12/16 07:28:25;;;;;;;;;;;;;;;;;;5046443;28;20391;-81
2023/12/16 07:30:52;;;;;;;;;;;;;;;;;;5052242;28;19924;-85
2023/12/16 07:33:18;;;;;;;;;;;;;;;;;;5053569;28;20015;-81
2023/12/16 07:35:44;;;;;;;;;;;;;;;;;;5054048;28;20011;-81
2023/12/16 07:38:10;;;;;;;;;;;;;;;;;;5054493;28;19920;-81
2023/12/16 07:40:36;;;;;;;;;;;;;;;;;;5054957;28;19978;-82
2023/12/16 07:43:02;;;;;;;;;;;;;;;;;;5054114;28;20095;-80
2023/12/16 07:45:28;;;;;;;;;;;;;;;;;;5051976;28;19960;-81
2023/12/16 07:47:54;;;;;;;;;;;;;;;;;;5051771;28;19953;-82
2023/12/16 07:50:21;;;;;;;;;;;;;;;;;;5056352;28;19927;-81
2023/12/16 07:52:47;;;;;;;;;;;;;;;;;;5056166;28;19925;-82
2023/12/16 07:55:12;;;;;;;;;;;;;;;;;;5054312;28;19927;-82
2023/12/16 07:57:38;;;;;;;;;;;;;;;;;;5054771;28;19975;-78
2023/12/16 08:00:04;;;;;;;;;;;;;;;;;;5048756;28;20030;-78
2023/12/16 08:02:33;;;;;;;;;;;;;;;;;;5051965;28;19955;-79
2023/12/16 08:04:59;;;;;;;;;;;;;;;;;;5051804;28;19919;-79
2023/12/16 08:07:25;;;;;;;;;;;;;;;;;;5051584;28;20373;-79
2023/12/16 08:09:51;;;;;;;;;;;;;;;;;;5052888;28;19956;-77
2023/12/16 08:12:17;;;;;;;;;;;;;;;;;;5052428;28;19913;-79
2023/12/16 08:14:43;;;;;;;;;;;;;;;;;;5039237;28;20003;-80
2023/12/16 08:17:09;;;;;;;;;;;;;;;;;;5052561;28;19955;-78
2023/12/16 08:19:35;;;;;;;;;;;;;;;;;;5049831;28;20392;-78
2023/12/16 08:22:01;;;;;;;;;;;;;;;;;;5049659;28;20003;-78
2023/12/16 08:24:29;;;;;;;;;;;;;;;;;;5051519;28;20362;-78
2023/12/16 08:26:55;;;;;;;;;;;;;;;;;;5052796;28;19925;-76
2023/12/16 08:29:21;;;;;;;;;;;;;;;;;;5049949;28;19991;-79
2023/12/16 08:31:47;;;;;;;;;;;;;;;;;;5049093;28;19927;-76
2023/12/16 08:34:13;;;;;;;;;;;;;;;;;;5051293;28;19917;-77
2023/12/16 08:36:39;;;;;;;;;;;;;;;;;;5057309;28;20465;-78
2023/12/16 08:39:05;;;;;;;;;;;;;;;;;;5050012;28;19999;-77
2023/12/16 08:41:31;;;;;;;;;;;;;;;;;;5048327;28;19987;-76
2023/12/16 08:43:57;;;;;;;;;;;;;;;;;;5044829;28;20415;-77
2023/12/16 08:46:25;;;;;;;;;;;;;;;;;;5042423;28;19932;-82
2023/12/16 08:48:53;;;;;;;;;;;;;;;;;;5049623;28;19921;-82
2023/12/16 08:51:19;;;;;;;;;;;;;;;;;;5050308;28;19921;-82
2023/12/16 08:53:45;;;;;;;;;;;;;;;;;;5049808;28;19920;-84
2023/12/16 08:56:11;;;;;;;;;;;;;;;;;;5049988;28;19935;-83
2023/12/16 08:58:37;;;;;;;;;;;;;;;;;;5046271;28;19990;-83
2023/12/16 09:01:03;;;;;;;;;;;;;;;;;;5046015;28;20009;-79
2023/12/16 09:03:29;;;;;;;;;;;;;;;;;;5048689;28;20272;-81
2023/12/16 09:05:55;;;;;;;;;;;;;;;;;;5055115;28;19959;-81
2023/12/16 09:08:21;;;;;;;;;;;;;;;;;;5044015;28;19975;-83
2023/12/16 09:10:47;;;;;;;;;;;;;;;;;;5050965;28;19960;-84
2023/12/16 09:13:13;;;;;;;;;;;;;;;;;;5045380;28;20349;-84
2023/12/16 09:15:39;;;;;;;;;;;;;;;;;;5035030;28;20227;-83
2023/12/16 09:18:05;;;;;;;;;;;;;;;;;;5047923;28;19949;-82
2023/12/16 09:20:31;;;;;;;;;;;;;;;;;;5050384;28;19993;-84
2023/12/16 09:22:57;;;;;;;;;;;;;;;;;;5047120;28;19975;-83
2023/12/16 09:25:23;;;;;;;;;;;;;;;;;;5052322;28;20336;-84
2023/12/16 09:27:49;;;;;;;;;;;;;;;;;;5051739;28;19924;-83
2023/12/16 09:30:16;;;;;;;;;;;;;;;;;;5047436;28;20375;-84
2023/12/16 09:32:43;;;;;;;;;;;;;;;;;;5048645;28;19919;-84
2023/12/16 09:35:08;;;;;;;;;;;;;;;;;;5043041;28;19913;-83
2023/12/16 09:37:34;;;;;;;;;;;;;;;;;;5049474;28;20007;-84
2023/12/16 09:40:00;;;;;;;;;;;;;;;;;;5048550;28;20372;-83
2023/12/16 09:42:26;;;;;;;;;;;;;;;;;;5050104;28;19956;-84
2023/12/16 09:44:52;;;;;;;;;;;;;;;;;;5039800;28;19978;-82
2023/12/16 09:47:18;;;;;;;;;;;;;;;;;;5041782;28;19999;-81
2023/12/16 09:49:44;;;;;;;;;;;;;;;;;;5049672;28;19967;-82
2023/12/16 09:52:10;;;;;;;;;;;;;;;;;;5049529;28;19962;-82
2023/12/16 09:54:36;;;;;;;;;;;;;;;;;;5048274;28;19978;-82
2023/12/16 09:57:02;;;;;;;;;;;;;;;;;;5050375;28;19913;-82
2023/12/16 09:59:28;;;;;;;;;;;;;;;;;;5047888;28;20501;-83
2023/12/16 10:01:54;;;;;;;;;;;;;;;;;;5050029;28;20384;-82
2023/12/16 10:04:20;;;;;;;;;;;;;;;;;;5049158;28;19917;-82
2023/12/16 10:06:46;;;;;;;;;;;;;;;;;;5050152;28;20294;-82
2023/12/16 10:09:13;;;;;;;;;;;;;;;;;;5049686;28;20041;-83
2023/12/16 10:11:39;;;;;;;;;;;;;;;;;;5050124;28;20305;-82
2023/12/16 10:14:05;;;;;;;;;;;;;;;;;;5046964;28;20324;-82
2023/12/16 10:16:31;;;;;;;;;;;;;;;;;;5042519;28;19940;-78
2023/12/16 10:18:57;;;;;;;;;;;;;;;;;;5048142;28;20009;-77
2023/12/16 10:21:23;;;;;;;;;;;;;;;;;;5047841;28;19970;-77
2023/12/16 10:23:49;;;;;;;;;;;;;;;;;;5047319;28;20003;-78
2023/12/16 10:26:15;;;;;;;;;;;;;;;;;;5045612;28;19923;-76
2023/12/16 10:28:41;;;;;;;;;;;;;;;;;;5050498;28;19982;-76
2023/12/16 10:31:07;;;;;;;;;;;;;;;;;;5050900;28;19913;-77
2023/12/16 10:33:33;;;;;;;;;;;;;;;;;;5047548;28;19956;-78
2023/12/16 10:35:59;;;;;;;;;;;;;;;;;;5048253;28;20273;-78
2023/12/16 10:38:25;;;;;;;;;;;;;;;;;;5046555;28;20383;-78
2023/12/16 10:40:50;;;;;;;;;;;;;;;;;;5046533;28;20598;-78
2023/12/16 10:43:16;;;;;;;;;;;;;;;;;;5039562;28;20388;-79
2023/12/16 10:45:42;;;;;;;;;;;;;;;;;;5046737;28;19956;-77
2023/12/16 10:48:08;;;;;;;;;;;;;;;;;;5041382;28;19956;-79
2023/12/16 10:50:34;;;;;;;;;;;;;;;;;;5047930;28;19931;-77
2023/12/16 10:53:00;;;;;;;;;;;;;;;;;;5048145;28;20407;-76
2023/12/16 10:55:26;;;;;;;;;;;;;;;;;;5046627;28;20407;-77
2023/12/16 10:57:52;;;;;;;;;;;;;;;;;;5045084;28;20384;-77
2023/12/16 11:00:18;;;;;;;;;;;;;;;;;;5046558;28;19994;-77
2023/12/16 11:02:44;;;;;;;;;;;;;;;;;;5047251;28;19967;-77
2023/12/16 11:05:10;;;;;;;;;;;;;;;;;;5045198;28;20379;-77
2023/12/16 11:07:39;;;;;;;;;;;;;;;;;;5044124;28;20143;-82
2023/12/16 11:10:05;;;;;;;;;;;;;;;;;;5051738;28;20276;-82
2023/12/16 11:12:31;;;;;;;;;;;;;;;;;;5048169;28;20364;-82
2023/12/16 11:14:57;;;;;;;;;;;;;;;;;;5044611;28;19971;-78
2023/12/16 11:17:23;;;;;;;;;;;;;;;;;;5046987;28;19975;-78
2023/12/16 11:19:49;;;;;;;;;;;;;;;;;;5047325;28;19956;-79
2023/12/16 11:22:16;;;;;;;;;;;;;;;;;;5047958;28;20020;-77
2023/12/16 11:24:42;;;;;;;;;;;;;;;;;;5047064;28;19924;-78
2023/12/16 11:27:09;;;;;;;;;;;;;;;;;;5046304;28;19975;-83
2023/12/16 11:29:35;;;;;;;;;;;;;;;;;;5046514;28;19912;-82
2023/12/16 11:32:01;;;;;;;;;;;;;;;;;;5048765;28;20331;-82
2023/12/16 11:34:27;;;;;;;;;;;;;;;;;;5048182;28;19944;-83
2023/12/16 11:36:55;;;;;;;;;;;;;;;;;;5049536;28;20390;-82
2023/12/16 11:39:21;;;;;;;;;;;;;;;;;;5053282;28;19920;-83
2023/12/16 11:41:49;;;;;;;;;;;;;;;;;;5051303;28;19974;-82
2023/12/16 11:44:14;;;;;;;;;;;;;;;;;;5047329;28;20034;-83
2023/12/16 11:46:41;;;;;;;;;;;;;;;;;;5048529;28;20011;-83
2023/12/16 11:49:07;;;;;;;;;;;;;;;;;;5050213;28;19917;-82
2023/12/16 11:51:34;;;;;;;;;;;;;;;;;;5050510;28;19923;-82
2023/12/16 11:54:00;;;;;;;;;;;;;;;;;;5052227;28;19921;-82
2023/12/16 11:56:26;;;;;;;;;;;;;;;;;;5050819;28;20335;-82
2023/12/16 11:58:57;;;;;;;;;;;;;;;;;;5049462;28;19962;-83
2023/12/16 12:01:23;;;;;;;;;;;;;;;;;;5050414;28;19923;-86
2023/12/16 12:03:49;;;;;;;;;;;;;;;;;;5050099;28;20296;-83
2023/12/16 12:06:15;;;;;;;;;;;;;;;;;;5048385;28;20360;-83
2023/12/16 12:08:42;;;;;;;;;;;;;;;;;;5049587;28;19972;-82
2023/12/16 12:11:08;;;;;;;;;;;;;;;;;;5050004;28;19916;-82
2023/12/16 12:13:35;;;;;;;;;;;;;;;;;;5049089;28;19913;-82
2023/12/16 12:16:01;;;;;;;;;;;;;;;;;;5048270;28;20329;-82
2023/12/16 12:18:27;;;;;;;;;;;;;;;;;;5049829;28;20013;-82
2023/12/16 12:20:53;;;;;;;;;;;;;;;;;;5050137;28;20356;-82
2023/12/16 12:23:19;;;;;;;;;;;;;;;;;;5053464;28;19919;-82
2023/12/16 12:25:45;;;;;;;;;;;;;;;;;;5052552;28;19982;-82
2023/12/16 12:28:11;;;;;;;;;;;;;;;;;;5049742;28;19982;-82
2023/12/16 12:30:37;;;;;;;;;;;;;;;;;;5048394;28;19955;-83
2023/12/16 12:33:03;;;;;;;;;;;;;;;;;;5049227;28;20284;-83
2023/12/16 12:35:29;;;;;;;;;;;;;;;;;;5047333;28;19960;-84
2023/12/16 12:37:56;;;;;;;;;;;;;;;;;;5050545;28;19971;-80
2023/12/16 12:40:23;;;;;;;;;;;;;;;;;;5050242;28;19913;-80
2023/12/16 12:42:49;;;;;;;;;;;;;;;;;;5044014;28;19921;-79
2023/12/16 12:45:15;;;;;;;;;;;;;;;;;;5047073;28;20011;-79
2023/12/16 12:47:41;;;;;;;;;;;;;;;;;;5049528;28;19943;-80
2023/12/16 12:50:07;;;;;;;;;;;;;;;;;;5050684;28;20311;-86
2023/12/16 12:52:33;;;;;;;;;;;;;;;;;;5051200;28;20238;-84
2023/12/16 12:54:59;;;;;;;;;;;;;;;;;;5055415;28;19975;-88
2023/12/16 12:57:24;;;;;;;;;;;;;;;;;;5046436;28;20396;-81
2023/12/16 12:59:51;;;;;;;;;;;;;;;;;;5048604;28;19971;-81
2023/12/16 13:02:17;;;;;;;;;;;;;;;;;;5050232;28;20324;-82
2023/12/16 13:04:43;;;;;;;;;;;;;;;;;;5050496;28;20271;-81
2023/12/16 13:07:09;;;;;;;;;;;;;;;;;;5048563;28;20373;-81
2023/12/16 13:09:35;;;;;;;;;;;;;;;;;;5050440;28;19996;-81
2023/12/16 13:12:01;;;;;;;;;;;;;;;;;;5049199;28;19952;-80
2023/12/16 13:14:29;;;;;;;;;;;;;;;;;;5049304;28;19920;-81
2023/12/16 13:16:54;;;;;;;;;;;;;;;;;;5049655;28;19955;-78
2023/12/16 13:19:20;;;;;;;;;;;;;;;;;;5048807;28;19967;-78
2023/12/16 13:21:46;;;;;;;;;;;;;;;;;;5050538;28;19952;-86
2023/12/16 13:24:13;;;;;;;;;;;;;;;;;;5051008;28;20368;-81
2023/12/16 13:26:39;;;;;;;;;;;;;;;;;;5050343;28;19912;-81
2023/12/16 13:29:05;;;;;;;;;;;;;;;;;;5047614;28;19998;-81
2023/12/16 13:31:32;;;;;;;;;;;;;;;;;;5050088;28;19913;-81
2023/12/16 13:33:57;;;;;;;;;;;;;;;;;;5048376;28;20157;-81
2023/12/16 13:36:24;;;;;;;;;;;;;;;;;;5049666;28;20046;-81
2023/12/16 13:38:50;;;;;;;;;;;;;;;;;;5048252;28;19992;-81
2023/12/16 13:41:16;;;;;;;;;;;;;;;;;;5041646;28;20320;-81
2023/12/16 13:43:44;;;;;;;;;;;;;;;;;;5035009;28;19962;-81
2023/12/16 13:46:10;;;;;;;;;;;;;;;;;;5047247;28;20304;-79
2023/12/16 13:48:36;;;;;;;;;;;;;;;;;;5048111;28;20348;-81
2023/12/16 13:51:01;;;;;;;;;;;;;;;;;;5049038;28;19944;-76
2023/12/16 13:53:27;;;;;;;;;;;;;;;;;;5046273;28;19986;-76
2023/12/16 13:55:53;;;;;;;;;;;;;;;;;;5046578;28;20194;-75
2023/12/16 13:58:21;;;;;;;;;;;;;;;;;;5046329;28;20000;-76
2023/12/16 14:00:47;;;;;;;;;;;;;;;;;;5039838;28;20363;-76
2023/12/16 14:03:13;;;;;;;;;;;;;;;;;;5045883;28;19916;-76
2023/12/16 14:05:39;;;;;;;;;;;;;;;;;;5045953;28;19956;-76
2023/12/16 14:08:05;;;;;;;;;;;;;;;;;;5046749;28;19952;-76
2023/12/16 14:10:31;;;;;;;;;;;;;;;;;;5043690;28;19921;-75
2023/12/16 14:12:57;;;;;;;;;;;;;;;;;;5045224;28;19955;-75
2023/12/16 14:15:23;;;;;;;;;;;;;;;;;;5043036;28;20061;-76
2023/12/16 14:17:48;;;;;;;;;;;;;;;;;;5047069;28;19955;-79
2023/12/16 14:20:14;;;;;;;;;;;;;;;;;;5047362;28;19956;-76
2023/12/16 14:22:40;;;;;;;;;;;;;;;;;;5045174;28;20040;-76
2023/12/16 14:25:09;;;;;;;;;;;;;;;;;;5047307;28;20324;-76
2023/12/16 14:27:36;;;;;;;;;;;;;;;;;;5044391;28;19917;-76
2023/12/16 14:30:02;;;;;;;;;;;;;;;;;;5047864;28;20008;-77
2023/12/16 14:32:28;;;;;;;;;;;;;;;;;;5048849;28;20256;-76
2023/12/16 14:34:54;;;;;;;;;;;;;;;;;;5034338;28;19948;-75
2023/12/16 14:37:20;;;;;;;;;;;;;;;;;;5048215;28;19913;-76
2023/12/16 14:39:47;;;;;;;;;;;;;;;;;;5048401;28;19955;-76
2023/12/16 14:42:13;;;;;;;;;;;;;;;;;;5044416;28;19921;-76
2023/12/16 14:44:39;;;;;;;;;;;;;;;;;;5046666;28;19975;-77
2023/12/16 14:47:05;;;;;;;;;;;;;;;;;;5047021;28;19916;-76
2023/12/16 14:49:31;;;;;;;;;;;;;;;;;;5047644;28;19955;-77
2023/12/16 14:51:57;;;;;;;;;;;;;;;;;;5047726;28;20462;-76
2023/12/16 14:54:23;;;;;;;;;;;;;;;;;;5047932;28;19956;-76
2023/12/16 14:56:48;;;;;;;;;;;;;;;;;;5048083;28;19956;-76
2023/12/16 14:59:14;;;;;;;;;;;;;;;;;;5043266;28;20446;-77
2023/12/16 15:01:40;;;;;;;;;;;;;;;;;;5025891;28;19999;-77
2023/12/16 15:04:06;;;;;;;;;;;;;;;;;;5047882;28;20001;-76
2023/12/16 15:06:32;;;;;;;;;;;;;;;;;;5046004;28;19944;-77
2023/12/16 15:08:58;;;;;;;;;;;;;;;;;;5048007;28;19948;-79
2023/12/16 15:11:24;;;;;;;;;;;;;;;;;;5052494;28;19920;-77
2023/12/16 15:13:50;;;;;;;;;;;;;;;;;;5051122;28;20565;-76
2023/12/16 15:16:16;;;;;;;;;;;;;;;;;;5051333;28;19920;-77
2023/12/16 15:18:42;;;;;;;;;;;;;;;;;;5051750;28;20297;-77
2023/12/16 15:21:08;;;;;;;;;;;;;;;;;;5051524;28;20348;-77
2023/12/16 15:23:34;;;;;;;;;;;;;;;;;;5051101;28;20004;-76
2023/12/16 15:26:00;;;;;;;;;;;;;;;;;;5052443;28;19920;-77
2023/12/16 15:28:26;;;;;;;;;;;;;;;;;;5051829;28;19963;-78
2023/12/16 15:30:53;;;;;;;;;;;;;;;;;;5048066;28;19956;-76
2023/12/16 15:33:19;;;;;;;;;;;;;;;;;;5042796;28;19909;-76
2023/12/16 15:35:45;;;;;;;;;;;;;;;;;;5034460;28;19923;-76
2023/12/16 15:38:11;;;;;;;;;;;;;;;;;;5039822;28;19948;-77
2023/12/16 15:40:38;;;;;;;;;;;;;;;;;;5051639;28;20309;-77
2023/12/16 15:43:04;;;;;;;;;;;;;;;;;;5051794;28;20042;-76
2023/12/16 15:45:30;;;;;;;;;;;;;;;;;;5050585;28;20499;-77
2023/12/16 15:47:56;;;;;;;;;;;;;;;;;;5051989;28;20340;-76
2023/12/16 15:50:22;;;;;;;;;;;;;;;;;;5050923;28;20380;-76
2023/12/16 15:52:48;;;;;;;;;;;;;;;;;;5050742;28;20388;-77
2023/12/16 15:55:14;;;;;;;;;;;;;;;;;;5051464;28;19930;-76
2023/12/16 15:57:41;;;;;;;;;;;;;;;;;;5051568;28;19943;-77
2023/12/16 16:00:11;;;;;;;;;;;;;;;;;;5048411;28;20371;-77
2023/12/16 16:02:37;;;;;;;;;;;;;;;;;;5050391;28;19916;-78
2023/12/16 16:05:03;;;;;;;;;;;;;;;;;;5050795;28;19954;-78
2023/12/16 16:07:29;;;;;;;;;;;;;;;;;;5051233;28;19936;-80
2023/12/16 16:09:55;;;;;;;;;;;;;;;;;;5052280;28;19940;-81
2023/12/16 16:12:21;;;;;;;;;;;;;;;;;;5052038;28;19959;-79
2023/12/16 16:14:48;;;;;;;;;;;;;;;;;;5049646;28;19967;-79
2023/12/16 16:17:14;;;;;;;;;;;;;;;;;;5051825;28;20410;-79
2023/12/16 16:19:40;;;;;;;;;;;;;;;;;;5052011;28;19955;-79
2023/12/16 16:22:12;;;;;;;;;;;;;;;;;;5050994;28;19948;-79
2023/12/16 16:24:38;;;;;;;;;;;;;;;;;;5038644;28;19920;-79
2023/12/16 16:27:04;;;;;;;;;;;;;;;;;;5052076;28;20324;-79
2023/12/16 16:29:30;;;;;;;;;;;;;;;;;;5051061;28;19963;-79
2023/12/16 16:31:56;;;;;;;;;;;;;;;;;;5051681;28;19913;-79
2023/12/16 16:34:22;;;;;;;;;;;;;;;;;;5051198;28;19944;-79
2023/12/16 16:36:48;;;;;;;;;;;;;;;;;;5051745;28;20349;-79